Watson, Texas
Current Conditions -  °F | °C
As of 10:15 PM on Thursday 27 Nov 2014 (Local Time) from KLZZ Reporting Station
Clear Clear  
Wind Chill: 42°   Ceiling: Unl
Heat Index: 42°   Visibility: 10mi
Dew Point: 33°   Wind: 0mph
Humidity: 69%   Direction: NA
Pressure: 30.37"   Gusts: NA
Location:  31.1064°N, 98.2303°W
Report Text: KLZZ 280415Z AUTO 00000KT 10SM CLR 06/00 A3037 RMK AO2 T00560003
Loading
Personal Weather Stations






























Interactive Weather Map New forecast layout! Learn more

10-Day Weather Forecast

Advertisements
Track Severe Weather on mobile